sensor_id;sensor_type;location;lat;lon;timestamp;pressure;altitude;pressure_sealevel;temperature;humidity
37291;BME280;23175;-33.706;151.094;2023-01-29T00:01:18;99495.65;;;28.66;44.74
37291;BME280;23175;-33.706;151.094;2023-01-29T00:03:50;99497.93;;;26.75;46.67
37291;BME280;23175;-33.706;151.094;2023-01-29T00:06:20;99500.95;;;28.89;44.58
37291;BME280;23175;-33.706;151.094;2023-01-29T00:08:50;99501.33;;;26.96;46.33
37291;BME280;23175;-33.706;151.094;2023-01-29T00:11:20;99503.55;;;26.10;47.54
37291;BME280;23175;-33.706;151.094;2023-01-29T00:13:49;99500.16;;;28.68;43.59
37291;BME280;23175;-33.706;151.094;2023-01-29T00:16:19;99498.99;;;29.62;42.69
37291;BME280;23175;-33.706;151.094;2023-01-29T00:18:48;99495.35;;;28.80;44.07
37291;BME280;23175;-33.706;151.094;2023-01-29T00:21:24;99500.46;;;29.26;43.78
37291;BME280;23175;-33.706;151.094;2023-01-29T00:23:54;99497.12;;;28.38;44.13
37291;BME280;23175;-33.706;151.094;2023-01-29T00:26:23;99493.63;;;26.83;47.20
37291;BME280;23175;-33.706;151.094;2023-01-29T00:28:52;99491.73;;;29.33;44.59
37291;BME280;23175;-33.706;151.094;2023-01-29T00:31:23;99486.62;;;28.82;44.85
37291;BME280;23175;-33.706;151.094;2023-01-29T00:33:52;99484.68;;;28.08;45.39
37291;BME280;23175;-33.706;151.094;2023-01-29T00:36:22;99485.81;;;29.02;43.41
37291;BME280;23175;-33.706;151.094;2023-01-29T00:38:55;99480.07;;;28.34;44.33
37291;BME280;23175;-33.706;151.094;2023-01-29T00:41:27;99477.46;;;27.78;43.59
37291;BME280;23175;-33.706;151.094;2023-01-29T00:43:58;99473.77;;;28.25;43.67
37291;BME280;23175;-33.706;151.094;2023-01-29T00:46:27;99470.20;;;29.29;42.35
37291;BME280;23175;-33.706;151.094;2023-01-29T00:48:56;99462.34;;;25.40;47.63
37291;BME280;23175;-33.706;151.094;2023-01-29T00:51:25;99464.83;;;24.90;49.16
37291;BME280;23175;-33.706;151.094;2023-01-29T00:53:55;99460.69;;;26.86;47.10
37291;BME280;23175;-33.706;151.094;2023-01-29T00:56:25;99457.67;;;25.38;47.72
37291;BME280;23175;-33.706;151.094;2023-01-29T00:58:56;99455.67;;;29.88;42.32
37291;BME280;23175;-33.706;151.094;2023-01-29T01:01:25;99450.83;;;25.93;45.72
37291;BME280;23175;-33.706;151.094;2023-01-29T01:03:55;99447.38;;;25.99;45.73
37291;BME280;23175;-33.706;151.094;2023-01-29T01:06:24;99446.23;;;23.36;49.34
37291;BME280;23175;-33.706;151.094;2023-01-29T01:08:54;99443.64;;;27.23;45.27
37291;BME280;23175;-33.706;151.094;2023-01-29T01:11:23;99448.08;;;25.60;46.97
37291;BME280;23175;-33.706;151.094;2023-01-29T01:13:52;99447.22;;;25.35;46.92
37291;BME280;23175;-33.706;151.094;2023-01-29T01:16:21;99449.53;;;28.69;42.45
37291;BME280;23175;-33.706;151.094;2023-01-29T01:18:50;99443.21;;;29.15;41.23
37291;BME280;23175;-33.706;151.094;2023-01-29T01:21:19;99439.42;;;27.20;44.38
37291;BME280;23175;-33.706;151.094;2023-01-29T01:23:48;99441.16;;;28.07;42.10
37291;BME280;23175;-33.706;151.094;2023-01-29T01:26:18;99444.11;;;27.92;41.93
37291;BME280;23175;-33.706;151.094;2023-01-29T01:28:47;99446.18;;;27.67;42.64
37291;BME280;23175;-33.706;151.094;2023-01-29T01:31:17;99444.00;;;28.42;41.59
37291;BME280;23175;-33.706;151.094;2023-01-29T01:33:46;99447.96;;;25.00;45.34
37291;BME280;23175;-33.706;151.094;2023-01-29T01:36:16;99446.83;;;29.12;40.46
37291;BME280;23175;-33.706;151.094;2023-01-29T01:38:45;99446.79;;;29.77;40.01
37291;BME280;23175;-33.706;151.094;2023-01-29T01:41:17;99447.13;;;27.91;42.40
37291;BME280;23175;-33.706;151.094;2023-01-29T01:43:50;99442.50;;;27.20;42.48
37291;BME280;23175;-33.706;151.094;2023-01-29T01:46:20;99439.26;;;27.46;42.60
37291;BME280;23175;-33.706;151.094;2023-01-29T01:48:52;99435.07;;;30.53;38.96
37291;BME280;23175;-33.706;151.094;2023-01-29T01:51:25;99429.46;;;31.10;37.78
37291;BME280;23175;-33.706;151.094;2023-01-29T01:53:59;99431.33;;;27.38;42.04
37291;BME280;23175;-33.706;151.094;2023-01-29T01:56:32;99422.97;;;30.75;37.84
37291;BME280;23175;-33.706;151.094;2023-01-29T01:59:02;99426.18;;;28.46;40.89
37291;BME280;23175;-33.706;151.094;2023-01-29T02:01:33;99425.77;;;29.63;40.48
37291;BME280;23175;-33.706;151.094;2023-01-29T02:04:05;99426.08;;;29.25;40.41
37291;BME280;23175;-33.706;151.094;2023-01-29T02:06:35;99420.71;;;30.01;39.55
37291;BME280;23175;-33.706;151.094;2023-01-29T02:09:12;99423.30;;;29.53;39.54
37291;BME280;23175;-33.706;151.094;2023-01-29T02:11:42;99421.07;;;28.81;40.00
37291;BME280;23175;-33.706;151.094;2023-01-29T02:14:12;99415.62;;;29.63;40.78
37291;BME280;23175;-33.706;151.094;2023-01-29T02:16:41;99413.29;;;31.50;38.60
37291;BME280;23175;-33.706;151.094;2023-01-29T02:19:19;99415.91;;;28.96;41.89
37291;BME280;23175;-33.706;151.094;2023-01-29T02:22:11;99411.29;;;29.29;42.25
37291;BME280;23175;-33.706;151.094;2023-01-29T02:25:03;99409.30;;;29.02;42.63
37291;BME280;23175;-33.706;151.094;2023-01-29T02:27:59;99405.84;;;28.97;43.55
37291;BME280;23175;-33.706;151.094;2023-01-29T02:30:35;99410.14;;;28.12;45.39
37291;BME280;23175;-33.706;151.094;2023-01-29T02:33:14;99405.95;;;27.22;47.21
37291;BME280;23175;-33.706;151.094;2023-01-29T02:35:51;99402.23;;;27.14;48.18
37291;BME280;23175;-33.706;151.094;2023-01-29T02:38:28;99402.80;;;28.34;45.81
37291;BME280;23175;-33.706;151.094;2023-01-29T02:41:02;99402.99;;;28.56;45.44
37291;BME280;23175;-33.706;151.094;2023-01-29T02:43:40;99404.10;;;29.49;43.31
37291;BME280;23175;-33.706;151.094;2023-01-29T02:46:17;99398.28;;;28.12;45.28
37291;BME280;23175;-33.706;151.094;2023-01-29T02:48:54;99398.31;;;29.14;43.79
37291;BME280;23175;-33.706;151.094;2023-01-29T02:51:30;99395.51;;;28.29;43.73
37291;BME280;23175;-33.706;151.094;2023-01-29T02:54:05;99393.13;;;28.07;46.19
37291;BME280;23175;-33.706;151.094;2023-01-29T02:56:40;99386.03;;;28.25;45.19
37291;BME280;23175;-33.706;151.094;2023-01-29T02:59:18;99380.03;;;28.47;44.15
37291;BME280;23175;-33.706;151.094;2023-01-29T03:01:54;99386.23;;;29.24;43.11
37291;BME280;23175;-33.706;151.094;2023-01-29T03:04:33;99386.95;;;27.04;44.51
37291;BME280;23175;-33.706;151.094;2023-01-29T03:07:08;99384.71;;;28.05;42.80
37291;BME280;23175;-33.706;151.094;2023-01-29T03:09:40;99383.63;;;28.47;43.14
37291;BME280;23175;-33.706;151.094;2023-01-29T03:12:16;99384.26;;;29.63;41.84
37291;BME280;23175;-33.706;151.094;2023-01-29T03:14:49;99377.77;;;30.54;40.17
37291;BME280;23175;-33.706;151.094;2023-01-29T03:17:20;99376.08;;;28.18;42.62
37291;BME280;23175;-33.706;151.094;2023-01-29T03:19:52;99381.90;;;29.54;42.33
37291;BME280;23175;-33.706;151.094;2023-01-29T03:22:22;99387.99;;;26.26;46.83
37291;BME280;23175;-33.706;151.094;2023-01-29T03:24:54;99398.01;;;29.40;42.10
37291;BME280;23175;-33.706;151.094;2023-01-29T03:27:27;99394.16;;;30.34;41.04
37291;BME280;23175;-33.706;151.094;2023-01-29T03:29:59;99383.02;;;31.16;40.00
37291;BME280;23175;-33.706;151.094;2023-01-29T03:32:30;99380.11;;;27.72;44.66
37291;BME280;23175;-33.706;151.094;2023-01-29T03:35:04;99379.43;;;29.93;39.67
37291;BME280;23175;-33.706;151.094;2023-01-29T03:37:40;99385.37;;;26.63;45.35
37291;BME280;23175;-33.706;151.094;2023-01-29T03:40:12;99393.52;;;27.59;44.76
37291;BME280;23175;-33.706;151.094;2023-01-29T03:42:51;99393.46;;;27.52;44.01
37291;BME280;23175;-33.706;151.094;2023-01-29T03:45:31;99386.92;;;29.82;41.48
37291;BME280;23175;-33.706;151.094;2023-01-29T03:48:07;99393.62;;;28.03;45.27
37291;BME280;23175;-33.706;151.094;2023-01-29T03:50:45;99397.13;;;27.26;47.05
37291;BME280;23175;-33.706;151.094;2023-01-29T03:53:24;99406.70;;;26.13;49.93
37291;BME280;23175;-33.706;151.094;2023-01-29T03:55:59;99425.48;;;25.68;50.89
37291;BME280;23175;-33.706;151.094;2023-01-29T03:58:36;99429.25;;;25.18;51.17
37291;BME280;23175;-33.706;151.094;2023-01-29T04:01:13;99432.40;;;25.51;51.04
37291;BME280;23175;-33.706;151.094;2023-01-29T04:03:47;99437.09;;;26.25;49.66
37291;BME280;23175;-33.706;151.094;2023-01-29T04:06:20;99437.65;;;24.98;51.68
37291;BME280;23175;-33.706;151.094;2023-01-29T04:08:54;99414.36;;;25.51;51.18
37291;BME280;23175;-33.706;151.094;2023-01-29T04:11:25;99407.16;;;23.67;51.65
37291;BME280;23175;-33.706;151.094;2023-01-29T04:13:56;99398.73;;;26.28;48.69
37291;BME280;23175;-33.706;151.094;2023-01-29T04:16:30;99402.40;;;25.18;49.13
37291;BME280;23175;-33.706;151.094;2023-01-29T04:19:01;99413.95;;;25.33;49.28
37291;BME280;23175;-33.706;151.094;2023-01-29T04:21:30;99420.83;;;23.47;52.26
37291;BME280;23175;-33.706;151.094;2023-01-29T04:24:00;99421.83;;;24.40;50.45
37291;BME280;23175;-33.706;151.094;2023-01-29T04:26:43;99426.52;;;26.92;46.49
37291;BME280;23175;-33.706;151.094;2023-01-29T04:29:28;99430.94;;;25.71;48.35
37291;BME280;23175;-33.706;151.094;2023-01-29T04:32:09;99449.59;;;25.93;46.84
37291;BME280;23175;-33.706;151.094;2023-01-29T04:34:52;99473.98;;;24.80;47.86
37291;BME280;23175;-33.706;151.094;2023-01-29T04:37:35;99486.02;;;23.28;49.42
37291;BME280;23175;-33.706;151.094;2023-01-29T04:40:17;99491.12;;;26.85;44.55
37291;BME280;23175;-33.706;151.094;2023-01-29T04:42:52;99504.39;;;28.04;41.93
37291;BME280;23175;-33.706;151.094;2023-01-29T04:45:30;99523.35;;;25.66;44.53
37291;BME280;23175;-33.706;151.094;2023-01-29T04:48:09;99544.88;;;26.71;43.98
37291;BME280;23175;-33.706;151.094;2023-01-29T04:50:48;99562.63;;;27.77;42.26
37291;BME280;23175;-33.706;151.094;2023-01-29T04:53:25;99561.70;;;21.42;52.93
37291;BME280;23175;-33.706;151.094;2023-01-29T04:56:00;99553.83;;;20.94;56.01
37291;BME280;23175;-33.706;151.094;2023-01-29T04:58:36;99542.94;;;20.81;59.36
37291;BME280;23175;-33.706;151.094;2023-01-29T05:01:12;99533.93;;;21.07;61.33
37291;BME280;23175;-33.706;151.094;2023-01-29T05:03:44;99545.80;;;22.07;60.21
37291;BME280;23175;-33.706;151.094;2023-01-29T05:06:16;99572.90;;;20.17;62.59
37291;BME280;23175;-33.706;151.094;2023-01-29T05:08:47;99583.29;;;19.03;65.95
37291;BME280;23175;-33.706;151.094;2023-01-29T05:11:19;99581.26;;;18.59;66.07
37291;BME280;23175;-33.706;151.094;2023-01-29T05:13:48;99574.42;;;21.21;61.65
37291;BME280;23175;-33.706;151.094;2023-01-29T05:16:21;99572.39;;;22.25;58.36
37291;BME280;23175;-33.706;151.094;2023-01-29T05:18:51;99568.78;;;20.76;60.49
37291;BME280;23175;-33.706;151.094;2023-01-29T05:21:22;99558.55;;;22.00;57.37
37291;BME280;23175;-33.706;151.094;2023-01-29T05:24:09;99556.44;;;23.17;54.97
37291;BME280;23175;-33.706;151.094;2023-01-29T05:26:38;99555.27;;;21.79;57.98
37291;BME280;23175;-33.706;151.094;2023-01-29T05:29:08;99558.23;;;23.66;54.72
37291;BME280;23175;-33.706;151.094;2023-01-29T05:31:37;99557.39;;;23.50;55.31
37291;BME280;23175;-33.706;151.094;2023-01-29T05:34:15;99558.69;;;22.06;56.84
37291;BME280;23175;-33.706;151.094;2023-01-29T05:36:44;99561.36;;;19.93;61.57
37291;BME280;23175;-33.706;151.094;2023-01-29T05:39:14;99556.01;;;20.58;61.40
37291;BME280;23175;-33.706;151.094;2023-01-29T05:41:43;99553.49;;;20.71;61.30
37291;BME280;23175;-33.706;151.094;2023-01-29T05:44:12;99545.33;;;20.19;61.83
37291;BME280;23175;-33.706;151.094;2023-01-29T05:46:41;99536.55;;;22.56;58.75
37291;BME280;23175;-33.706;151.094;2023-01-29T05:49:10;99534.41;;;23.16;55.84
37291;BME280;23175;-33.706;151.094;2023-01-29T05:51:39;99533.98;;;21.75;58.57
37291;BME280;23175;-33.706;151.094;2023-01-29T05:54:11;99534.88;;;24.62;53.39
37291;BME280;23175;-33.706;151.094;2023-01-29T05:56:41;99540.12;;;26.09;51.79
37291;BME280;23175;-33.706;151.094;2023-01-29T05:59:10;99537.91;;;25.77;51.03
37291;BME280;23175;-33.706;151.094;2023-01-29T06:01:39;99535.41;;;25.40;51.38
37291;BME280;23175;-33.706;151.094;2023-01-29T06:04:08;99534.69;;;24.98;52.30
37291;BME280;23175;-33.706;151.094;2023-01-29T06:06:38;99538.34;;;24.60;53.17
37291;BME280;23175;-33.706;151.094;2023-01-29T06:09:09;99547.32;;;25.81;51.14
37291;BME280;23175;-33.706;151.094;2023-01-29T06:11:38;99552.34;;;22.52;56.41
37291;BME280;23175;-33.706;151.094;2023-01-29T06:14:08;99556.18;;;22.49;56.70
37291;BME280;23175;-33.706;151.094;2023-01-29T06:16:37;99559.87;;;22.14;57.95
37291;BME280;23175;-33.706;151.094;2023-01-29T06:19:06;99553.78;;;19.70;62.29
37291;BME280;23175;-33.706;151.094;2023-01-29T06:21:35;99547.13;;;21.99;58.07
37291;BME280;23175;-33.706;151.094;2023-01-29T06:24:06;99543.38;;;20.52;61.20
37291;BME280;23175;-33.706;151.094;2023-01-29T06:26:35;99536.56;;;24.61;54.13
37291;BME280;23175;-33.706;151.094;2023-01-29T06:29:04;99534.61;;;25.03;53.27
37291;BME280;23175;-33.706;151.094;2023-01-29T06:31:33;99539.17;;;25.67;52.61
37291;BME280;23175;-33.706;151.094;2023-01-29T06:34:03;99541.66;;;24.99;53.21
37291;BME280;23175;-33.706;151.094;2023-01-29T06:36:32;99546.14;;;21.74;57.33
37291;BME280;23175;-33.706;151.094;2023-01-29T06:39:01;99542.41;;;21.88;56.99
37291;BME280;23175;-33.706;151.094;2023-01-29T06:41:30;99534.90;;;21.65;58.43
37291;BME280;23175;-33.706;151.094;2023-01-29T06:44:00;99525.12;;;22.09;56.42
37291;BME280;23175;-33.706;151.094;2023-01-29T06:46:29;99518.61;;;23.53;54.69
37291;BME280;23175;-33.706;151.094;2023-01-29T06:48:59;99519.65;;;24.62;53.48
37291;BME280;23175;-33.706;151.094;2023-01-29T06:51:28;99526.54;;;25.61;51.33
37291;BME280;23175;-33.706;151.094;2023-01-29T06:53:58;99534.86;;;25.64;51.03
37291;BME280;23175;-33.706;151.094;2023-01-29T06:56:28;99535.20;;;25.36;51.13
37291;BME280;23175;-33.706;151.094;2023-01-29T06:58:57;99531.74;;;22.02;56.87
37291;BME280;23175;-33.706;151.094;2023-01-29T07:01:27;99527.06;;;24.43;52.82
37291;BME280;23175;-33.706;151.094;2023-01-29T07:03:56;99522.04;;;24.28;54.27
37291;BME280;23175;-33.706;151.094;2023-01-29T07:06:28;99509.39;;;23.81;53.74
37291;BME280;23175;-33.706;151.094;2023-01-29T07:08:58;99500.23;;;24.70;52.51
37291;BME280;23175;-33.706;151.094;2023-01-29T07:11:27;99492.26;;;25.61;50.80
37291;BME280;23175;-33.706;151.094;2023-01-29T07:13:56;99491.47;;;25.56;50.67
37291;BME280;23175;-33.706;151.094;2023-01-29T07:16:25;99492.66;;;25.45;49.87
37291;BME280;23175;-33.706;151.094;2023-01-29T07:18:54;99491.44;;;25.36;50.03
37291;BME280;23175;-33.706;151.094;2023-01-29T07:21:23;99485.12;;;24.03;51.52
37291;BME280;23175;-33.706;151.094;2023-01-29T07:23:53;99484.45;;;25.17;50.15
37291;BME280;23175;-33.706;151.094;2023-01-29T07:26:22;99484.51;;;24.27;52.62
37291;BME280;23175;-33.706;151.094;2023-01-29T07:28:51;99485.61;;;25.47;49.49
37291;BME280;23175;-33.706;151.094;2023-01-29T07:31:20;99490.00;;;25.31;50.29
37291;BME280;23175;-33.706;151.094;2023-01-29T07:33:50;99499.09;;;24.62;50.78
37291;BME280;23175;-33.706;151.094;2023-01-29T07:36:19;99504.59;;;25.20;50.26
37291;BME280;23175;-33.706;151.094;2023-01-29T07:38:50;99504.98;;;23.27;53.37
37291;BME280;23175;-33.706;151.094;2023-01-29T07:41:19;99511.00;;;25.96;48.75
37291;BME280;23175;-33.706;151.094;2023-01-29T07:43:48;99515.14;;;25.15;48.86
37291;BME280;23175;-33.706;151.094;2023-01-29T07:46:17;99518.54;;;26.63;47.71
37291;BME280;23175;-33.706;151.094;2023-01-29T07:48:47;99519.85;;;26.86;47.30
37291;BME280;23175;-33.706;151.094;2023-01-29T07:51:16;99520.19;;;26.86;47.31
37291;BME280;23175;-33.706;151.094;2023-01-29T07:53:45;99527.01;;;26.99;47.53
37291;BME280;23175;-33.706;151.094;2023-01-29T07:56:14;99533.83;;;26.62;47.79
37291;BME280;23175;-33.706;151.094;2023-01-29T07:58:44;99542.62;;;23.47;52.98
37291;BME280;23175;-33.706;151.094;2023-01-29T08:01:13;99554.33;;;26.08;49.46
37291;BME280;23175;-33.706;151.094;2023-01-29T08:03:42;99570.29;;;25.79;49.75
37291;BME280;23175;-33.706;151.094;2023-01-29T08:06:11;99580.15;;;26.24;49.20
37291;BME280;23175;-33.706;151.094;2023-01-29T08:08:41;99585.61;;;25.19;51.06
37291;BME280;23175;-33.706;151.094;2023-01-29T08:11:10;99593.71;;;25.67;50.09
37291;BME280;23175;-33.706;151.094;2023-01-29T08:13:39;99591.64;;;23.17;53.38
37291;BME280;23175;-33.706;151.094;2023-01-29T08:16:09;99590.69;;;23.58;52.75
37291;BME280;23175;-33.706;151.094;2023-01-29T08:18:38;99590.08;;;24.41;51.71
37291;BME280;23175;-33.706;151.094;2023-01-29T08:21:08;99594.90;;;24.65;52.20
37291;BME280;23175;-33.706;151.094;2023-01-29T08:23:37;99600.80;;;23.70;53.37
37291;BME280;23175;-33.706;151.094;2023-01-29T08:26:06;99610.83;;;25.34;51.36
37291;BME280;23175;-33.706;151.094;2023-01-29T08:28:36;99620.96;;;23.47;54.56
37291;BME280;23175;-33.706;151.094;2023-01-29T08:31:11;99627.40;;;23.20;54.13
37291;BME280;23175;-33.706;151.094;2023-01-29T08:33:41;99631.94;;;23.14;55.31
37291;BME280;23175;-33.706;151.094;2023-01-29T08:36:10;99631.58;;;22.76;55.40
37291;BME280;23175;-33.706;151.094;2023-01-29T08:38:40;99627.23;;;24.45;53.17
37291;BME280;23175;-33.706;151.094;2023-01-29T08:41:10;99624.75;;;25.06;51.15
37291;BME280;23175;-33.706;151.094;2023-01-29T08:43:39;99627.24;;;25.66;50.25
37291;BME280;23175;-33.706;151.094;2023-01-29T08:46:08;99630.46;;;25.86;50.10
37291;BME280;23175;-33.706;151.094;2023-01-29T08:48:37;99635.19;;;25.12;51.00
37291;BME280;23175;-33.706;151.094;2023-01-29T08:51:06;99637.37;;;22.85;54.57
37291;BME280;23175;-33.706;151.094;2023-01-29T08:53:36;99639.26;;;24.56;51.60
37291;BME280;23175;-33.706;151.094;2023-01-29T08:56:05;99642.33;;;23.91;52.11
37291;BME280;23175;-33.706;151.094;2023-01-29T08:58:35;99650.99;;;23.56;53.27
37291;BME280;23175;-33.706;151.094;2023-01-29T09:01:08;99661.15;;;22.95;53.98
37291;BME280;23175;-33.706;151.094;2023-01-29T09:03:38;99674.73;;;20.88;57.87
37291;BME280;23175;-33.706;151.094;2023-01-29T09:06:10;99680.97;;;21.33;58.36
37291;BME280;23175;-33.706;151.094;2023-01-29T09:08:40;99684.88;;;22.68;55.95
37291;BME280;23175;-33.706;151.094;2023-01-29T09:11:10;99691.03;;;20.30;59.57
37291;BME280;23175;-33.706;151.094;2023-01-29T09:13:39;99693.24;;;23.12;54.41
37291;BME280;23175;-33.706;151.094;2023-01-29T09:16:09;99697.57;;;23.82;52.90
37291;BME280;23175;-33.706;151.094;2023-01-29T09:18:39;99701.78;;;24.98;51.10
37291;BME280;23175;-33.706;151.094;2023-01-29T09:21:08;99707.43;;;22.93;54.15
37291;BME280;23175;-33.706;151.094;2023-01-29T09:23:38;99711.60;;;24.14;51.08
37291;BME280;23175;-33.706;151.094;2023-01-29T09:26:08;99716.28;;;22.39;53.92
37291;BME280;23175;-33.706;151.094;2023-01-29T09:28:37;99718.07;;;22.28;54.95
37291;BME280;23175;-33.706;151.094;2023-01-29T09:31:06;99714.17;;;23.57;52.82
37291;BME280;23175;-33.706;151.094;2023-01-29T09:33:35;99722.89;;;21.57;56.19
37291;BME280;23175;-33.706;151.094;2023-01-29T09:36:05;99724.46;;;23.10;53.27
37291;BME280;23175;-33.706;151.094;2023-01-29T09:38:35;99723.34;;;22.38;53.72
37291;BME280;23175;-33.706;151.094;2023-01-29T09:41:19;99723.79;;;24.00;50.90
37291;BME280;23175;-33.706;151.094;2023-01-29T09:43:54;99726.84;;;22.29;53.69
37291;BME280;23175;-33.706;151.094;2023-01-29T09:46:29;99725.54;;;19.70;59.33
37291;BME280;23175;-33.706;151.094;2023-01-29T09:49:05;99728.68;;;20.96;56.86
37291;BME280;23175;-33.706;151.094;2023-01-29T09:51:42;99734.35;;;21.59;56.10
37291;BME280;23175;-33.706;151.094;2023-01-29T09:54:18;99732.90;;;21.30;55.63
37291;BME280;23175;-33.706;151.094;2023-01-29T09:56:54;99741.20;;;22.91;53.34
37291;BME280;23175;-33.706;151.094;2023-01-29T09:59:25;99743.45;;;19.66;57.41
37291;BME280;23175;-33.706;151.094;2023-01-29T10:02:04;99744.98;;;24.30;50.53
37291;BME280;23175;-33.706;151.094;2023-01-29T10:04:51;99752.55;;;23.11;52.06
37291;BME280;23175;-33.706;151.094;2023-01-29T10:07:43;99750.22;;;21.05;55.43
37291;BME280;23175;-33.706;151.094;2023-01-29T10:10:30;99746.68;;;22.44;52.77
37291;BME280;23175;-33.706;151.094;2023-01-29T10:13:14;99746.66;;;24.69;48.81
37291;BME280;23175;-33.706;151.094;2023-01-29T10:16:01;99751.45;;;25.05;48.04
37291;BME280;23175;-33.706;151.094;2023-01-29T10:19:04;99759.17;;;23.56;49.66
37291;BME280;23175;-33.706;151.094;2023-01-29T10:21:47;99755.43;;;24.68;48.30
37291;BME280;23175;-33.706;151.094;2023-01-29T10:24:28;99747.17;;;23.34;50.40
37291;BME280;23175;-33.706;151.094;2023-01-29T10:27:00;99741.36;;;23.22;51.55
37291;BME280;23175;-33.706;151.094;2023-01-29T10:29:32;99739.92;;;22.69;52.54
37291;BME280;23175;-33.706;151.094;2023-01-29T10:32:02;99730.38;;;23.75;49.54
37291;BME280;23175;-33.706;151.094;2023-01-29T10:34:37;99720.34;;;24.66;48.66
37291;BME280;23175;-33.706;151.094;2023-01-29T10:37:16;99712.47;;;24.81;47.35
37291;BME280;23175;-33.706;151.094;2023-01-29T10:39:46;99704.42;;;25.32;47.19
37291;BME280;23175;-33.706;151.094;2023-01-29T10:42:23;99699.14;;;25.00;47.98
37291;BME280;23175;-33.706;151.094;2023-01-29T10:45:05;99691.37;;;25.52;47.16
37291;BME280;23175;-33.706;151.094;2023-01-29T10:47:58;99684.21;;;25.72;46.49
37291;BME280;23175;-33.706;151.094;2023-01-29T10:50:43;99681.76;;;24.92;46.87
37291;BME280;23175;-33.706;151.094;2023-01-29T10:53:41;99680.60;;;25.71;46.21
37291;BME280;23175;-33.706;151.094;2023-01-29T10:56:26;99678.10;;;25.82;46.43
37291;BME280;23175;-33.706;151.094;2023-01-29T10:59:03;99677.68;;;24.11;49.18
37291;BME280;23175;-33.706;151.094;2023-01-29T11:01:36;99672.31;;;24.76;47.42
37291;BME280;23175;-33.706;151.094;2023-01-29T11:04:08;99670.68;;;24.05;48.86
37291;BME280;23175;-33.706;151.094;2023-01-29T11:06:39;99671.04;;;24.84;48.56
37291;BME280;23175;-33.706;151.094;2023-01-29T11:09:25;99668.07;;;23.02;49.99
37291;BME280;23175;-33.706;151.094;2023-01-29T11:11:59;99673.83;;;22.05;51.86
37291;BME280;23175;-33.706;151.094;2023-01-29T11:14:32;99673.01;;;24.81;47.57
37291;BME280;23175;-33.706;151.094;2023-01-29T11:17:14;99677.32;;;24.60;48.47
37291;BME280;23175;-33.706;151.094;2023-01-29T11:19:46;99679.70;;;23.06;50.77
37291;BME280;23175;-33.706;151.094;2023-01-29T11:22:17;99685.62;;;24.01;49.78
37291;BME280;23175;-33.706;151.094;2023-01-29T11:24:56;99695.12;;;22.11;51.76
37291;BME280;23175;-33.706;151.094;2023-01-29T11:27:41;99691.25;;;24.46;48.64
37291;BME280;23175;-33.706;151.094;2023-01-29T11:30:20;99687.87;;;24.92;49.06
37291;BME280;23175;-33.706;151.094;2023-01-29T11:32:57;99689.27;;;21.79;52.51
37291;BME280;23175;-33.706;151.094;2023-01-29T11:35:28;99683.98;;;23.53;49.95
37291;BME280;23175;-33.706;151.094;2023-01-29T11:38:07;99678.16;;;24.52;49.53
37291;BME280;23175;-33.706;151.094;2023-01-29T11:40:39;99672.53;;;24.98;49.54
37291;BME280;23175;-33.706;151.094;2023-01-29T11:43:29;99671.06;;;24.24;50.50
37291;BME280;23175;-33.706;151.094;2023-01-29T11:46:02;99663.80;;;25.44;48.38
37291;BME280;23175;-33.706;151.094;2023-01-29T11:48:40;99654.19;;;25.26;47.75
37291;BME280;23175;-33.706;151.094;2023-01-29T11:51:19;99649.03;;;25.65;47.07
37291;BME280;23175;-33.706;151.094;2023-01-29T11:53:52;99653.70;;;24.97;47.04
37291;BME280;23175;-33.706;151.094;2023-01-29T11:56:27;99660.12;;;25.11;46.74
37291;BME280;23175;-33.706;151.094;2023-01-29T11:58:57;99662.32;;;25.22;47.37
37291;BME280;23175;-33.706;151.094;2023-01-29T12:01:31;99662.48;;;25.14;46.67
37291;BME280;23175;-33.706;151.094;2023-01-29T12:04:03;99663.84;;;25.45;46.81
37291;BME280;23175;-33.706;151.094;2023-01-29T12:06:43;99665.16;;;24.73;48.12
37291;BME280;23175;-33.706;151.094;2023-01-29T12:09:17;99662.86;;;25.71;46.78
37291;BME280;23175;-33.706;151.094;2023-01-29T12:11:47;99658.67;;;25.61;46.98
37291;BME280;23175;-33.706;151.094;2023-01-29T12:14:30;99654.18;;;25.15;47.60
37291;BME280;23175;-33.706;151.094;2023-01-29T12:17:04;99649.46;;;20.41;55.69
37291;BME280;23175;-33.706;151.094;2023-01-29T12:19:39;99638.77;;;23.01;52.20
37291;BME280;23175;-33.706;151.094;2023-01-29T12:22:15;99630.30;;;24.65;49.46
37291;BME280;23175;-33.706;151.094;2023-01-29T12:24:51;99629.38;;;25.35;48.28
37291;BME280;23175;-33.706;151.094;2023-01-29T12:27:26;99624.93;;;24.87;48.18
37291;BME280;23175;-33.706;151.094;2023-01-29T12:30:04;99619.07;;;24.62;48.61
37291;BME280;23175;-33.706;151.094;2023-01-29T12:32:43;99619.45;;;25.37;47.30
37291;BME280;23175;-33.706;151.094;2023-01-29T12:35:22;99620.53;;;25.49;46.82
37291;BME280;23175;-33.706;151.094;2023-01-29T12:37:57;99618.31;;;25.50;46.75
37291;BME280;23175;-33.706;151.094;2023-01-29T12:40:31;99609.27;;;25.27;47.60
37291;BME280;23175;-33.706;151.094;2023-01-29T12:43:10;99606.34;;;25.64;46.89
37291;BME280;23175;-33.706;151.094;2023-01-29T12:45:42;99605.05;;;25.69;46.67
37291;BME280;23175;-33.706;151.094;2023-01-29T12:48:18;99602.72;;;25.72;46.74
37291;BME280;23175;-33.706;151.094;2023-01-29T12:50:49;99603.63;;;25.32;46.89
37291;BME280;23175;-33.706;151.094;2023-01-29T12:53:26;99597.98;;;25.77;46.47
37291;BME280;23175;-33.706;151.094;2023-01-29T12:56:01;99591.53;;;25.17;46.60
37291;BME280;23175;-33.706;151.094;2023-01-29T12:58:36;99595.60;;;25.47;46.66
37291;BME280;23175;-33.706;151.094;2023-01-29T13:01:16;99618.08;;;25.33;46.70